createdAt,value
2022-10-04T00:01:58.377Z,0.90
2022-10-04T00:04:43.983Z,1.08
2022-10-04T00:07:13.510Z,0.85
2022-10-04T00:09:42.638Z,0.80
2022-10-04T00:12:16.225Z,0.80
2022-10-04T00:14:43.285Z,1.17
2022-10-04T00:17:11.693Z,1.40
2022-10-04T00:19:48.314Z,0.80
2022-10-04T00:22:17.454Z,0.60
2022-10-04T00:25:02.881Z,0.80
2022-10-04T00:27:29.338Z,0.85
2022-10-04T00:30:01.880Z,0.70
2022-10-04T00:32:37.451Z,0.77
2022-10-04T00:35:23.782Z,0.85
2022-10-04T00:37:53.110Z,0.80
2022-10-04T00:40:20.148Z,0.85
2022-10-04T00:42:49.258Z,0.90
2022-10-04T00:45:25.200Z,0.80
2022-10-04T00:47:54.404Z,0.80
2022-10-04T00:50:26.142Z,0.88
2022-10-04T00:52:55.171Z,0.88
2022-10-04T00:55:33.156Z,0.98
2022-10-04T00:58:00.581Z,1.05
2022-10-04T01:00:29.016Z,0.70
2022-10-04T01:02:58.645Z,0.60
2022-10-04T01:05:45.245Z,0.95
2022-10-04T01:08:17.304Z,2.08
2022-10-04T01:10:46.629Z,0.95
2022-10-04T01:13:16.016Z,1.00
2022-10-04T01:15:44.848Z,0.88
2022-10-04T01:18:14.494Z,1.02
2022-10-04T01:20:49.676Z,1.00
2022-10-04T01:23:34.874Z,0.85
2022-10-04T01:26:03.985Z,0.90
2022-10-04T01:28:30.504Z,1.50
2022-10-04T01:30:57.003Z,0.95
2022-10-04T01:33:25.104Z,1.10
2022-10-04T01:35:51.597Z,2.38
2022-10-04T01:38:18.095Z,0.98
2022-10-04T01:41:04.878Z,1.00
2022-10-04T01:43:33.801Z,0.77
2022-10-04T01:46:02.656Z,1.02
2022-10-04T01:48:32.102Z,0.98
2022-10-04T01:51:17.264Z,1.33
2022-10-04T01:53:53.803Z,0.93
2022-10-04T01:56:23.389Z,0.98
2022-10-04T01:58:59.189Z,0.90
2022-10-04T02:01:38.842Z,0.90
2022-10-04T02:04:25.528Z,1.23
2022-10-04T02:06:55.056Z,0.73
2022-10-04T02:09:26.646Z,0.90
2022-10-04T02:11:54.430Z,0.93
2022-10-04T02:14:22.662Z,1.13
2022-10-04T02:16:52.250Z,1.00
2022-10-04T02:19:19.488Z,1.17
2022-10-04T02:21:47.082Z,0.98
2022-10-04T02:24:13.756Z,1.05
2022-10-04T02:26:40.194Z,1.33
2022-10-04T02:29:06.619Z,1.17
2022-10-04T02:31:53.936Z,1.35
2022-10-04T02:34:20.392Z,1.20
2022-10-04T02:36:51.754Z,1.45
2022-10-04T02:39:21.364Z,1.00
2022-10-04T02:41:50.781Z,1.25
2022-10-04T02:44:29.505Z,1.30
2022-10-04T02:47:14.222Z,0.98
2022-10-04T02:49:48.767Z,1.00
2022-10-04T02:52:20.799Z,1.48
2022-10-04T02:55:02.699Z,1.52
2022-10-04T02:57:30.251Z,1.50
2022-10-04T03:00:23.098Z,2.15
2022-10-04T03:03:08.365Z,1.17
2022-10-04T03:05:35.189Z,1.90
2022-10-04T03:08:01.811Z,3.30
2022-10-04T03:10:28.155Z,1.50
2022-10-04T03:12:55.453Z,2.03
2022-10-04T03:15:22.032Z,2.00
2022-10-04T03:17:50.229Z,1.75
2022-10-04T03:20:21.318Z,1.98
2022-10-04T03:22:51.037Z,1.55
2022-10-04T03:25:19.115Z,1.45
2022-10-04T03:27:47.791Z,1.63
2022-10-04T03:30:14.674Z,1.98
2022-10-04T03:32:41.606Z,1.48
2022-10-04T03:35:17.546Z,1.40
2022-10-04T03:37:46.098Z,1.63
2022-10-04T03:40:13.805Z,1.65
2022-10-04T03:42:40.586Z,1.70
2022-10-04T03:45:08.418Z,2.10
2022-10-04T03:47:39.469Z,1.80
2022-10-04T03:50:12.940Z,2.15
2022-10-04T03:52:40.970Z,2.22
2022-10-04T03:55:08.008Z,2.53
2022-10-04T03:57:35.290Z,1.75
2022-10-04T04:00:02.119Z,2.15
2022-10-04T04:02:45.036Z,2.20
2022-10-04T04:05:21.473Z,1.55
2022-10-04T04:07:56.074Z,1.83
2022-10-04T04:10:27.310Z,3.40
2022-10-04T04:12:58.558Z,2.42
2022-10-04T04:15:28.665Z,2.72
2022-10-04T04:17:55.230Z,1.55
2022-10-04T04:20:24.901Z,1.48
2022-10-04T04:22:56.884Z,1.67
2022-10-04T04:25:24.254Z,1.60
2022-10-04T04:27:56.378Z,1.52
2022-10-04T04:30:22.729Z,1.70
2022-10-04T04:32:51.276Z,1.40
2022-10-04T04:35:22.565Z,1.67
2022-10-04T04:38:02.864Z,1.50
2022-10-04T04:40:29.343Z,1.40
2022-10-04T04:42:57.403Z,1.50
2022-10-04T04:45:30.095Z,1.20
2022-10-04T04:48:01.240Z,1.35
2022-10-04T04:50:34.997Z,1.80
2022-10-04T04:53:04.755Z,2.70
2022-10-04T04:55:56.701Z,3.05
2022-10-04T04:58:27.567Z,2.72
2022-10-04T05:01:04.428Z,3.85
2022-10-04T05:03:31.277Z,2.67
2022-10-04T05:06:04.855Z,3.20
2022-10-04T05:08:36.003Z,2.50
2022-10-04T05:11:08.552Z,2.10
2022-10-04T05:13:47.416Z,2.38
2022-10-04T05:16:16.811Z,2.30
2022-10-04T05:18:43.555Z,2.20
2022-10-04T05:21:20.632Z,1.98
2022-10-04T05:23:47.626Z,2.42
2022-10-04T05:26:14.617Z,2.40
2022-10-04T05:28:41.492Z,2.35
2022-10-04T05:31:32.458Z,2.85
2022-10-04T05:33:59.348Z,2.42
2022-10-04T05:36:48.091Z,2.63
2022-10-04T05:39:50.390Z,2.47
2022-10-04T05:42:23.604Z,2.47
2022-10-04T05:47:38.839Z,2.10
2022-10-04T05:50:27.988Z,3.33
2022-10-04T05:53:35.239Z,2.50
2022-10-04T05:56:20.185Z,3.35
2022-10-04T05:59:15.787Z,3.58
2022-10-04T06:02:00.995Z,3.35
2022-10-04T06:04:27.417Z,2.85
2022-10-04T06:06:56.948Z,17.88
2022-10-04T06:09:42.286Z,3.72
2022-10-04T06:12:08.632Z,3.38
2022-10-04T06:14:58.513Z,3.88
2022-10-04T06:17:41.306Z,4.05
2022-10-04T06:20:07.689Z,3.60
2022-10-04T06:22:34.259Z,3.53
2022-10-04T06:25:01.854Z,3.22
2022-10-04T06:27:37.114Z,3.80
2022-10-04T06:30:11.715Z,4.00
2022-10-04T06:32:38.284Z,4.07
2022-10-04T06:35:10.764Z,3.25
2022-10-04T06:38:00.696Z,3.67
2022-10-04T06:40:36.108Z,3.28
2022-10-04T06:43:08.677Z,3.00
2022-10-04T06:45:38.169Z,4.00
2022-10-04T06:48:23.564Z,4.10
2022-10-04T06:50:53.895Z,3.17
2022-10-04T06:53:26.368Z,3.72
2022-10-04T06:56:05.616Z,3.05
2022-10-04T06:58:44.183Z,2.90
2022-10-04T07:01:26.977Z,3.03
2022-10-04T07:03:57.438Z,2.90
2022-10-04T07:06:25.995Z,3.05
2022-10-04T07:08:56.180Z,3.17
2022-10-04T07:11:43.461Z,3.00
2022-10-04T07:14:13.589Z,3.20
2022-10-04T07:16:51.320Z,3.05
2022-10-04T07:19:20.978Z,3.70
2022-10-04T07:21:47.510Z,11.82
2022-10-04T07:24:21.102Z,4.28
2022-10-04T07:27:03.811Z,4.10
2022-10-04T07:32:40.100Z,3.45
2022-10-04T07:35:09.910Z,2.83
2022-10-04T07:37:50.578Z,3.30
2022-10-04T07:40:30.046Z,2.50
2022-10-04T07:43:14.647Z,2.65
2022-10-04T07:45:42.013Z,2.90
2022-10-04T07:48:25.022Z,3.13
2022-10-04T07:51:11.638Z,3.25
2022-10-04T07:57:00.153Z,2.20
2022-10-04T07:59:33.768Z,2.40
2022-10-04T08:02:25.600Z,2.78
2022-10-04T08:09:04.053Z,2.38
2022-10-04T08:11:37.213Z,2.58
2022-10-04T08:16:59.227Z,2.00
2022-10-04T08:19:47.486Z,2.17
2022-10-04T08:25:28.288Z,2.45
2022-10-04T08:28:24.362Z,2.20
2022-10-04T08:31:12.159Z,1.70
2022-10-04T08:42:49.934Z,2.00
2022-10-04T08:45:17.080Z,1.80
2022-10-04T08:47:58.561Z,2.05
2022-10-04T08:50:44.879Z,2.13
2022-10-04T08:53:30.931Z,2.40
2022-10-04T08:59:04.233Z,2.38
2022-10-04T09:01:44.326Z,2.65
2022-10-04T09:04:40.860Z,2.43
2022-10-04T09:07:40.040Z,2.55
2022-10-04T09:10:33.538Z,2.63
2022-10-04T09:13:15.208Z,2.58
2022-10-04T09:15:41.734Z,2.42
2022-10-04T09:18:15.266Z,2.20
2022-10-04T09:20:54.585Z,2.72
2022-10-04T09:23:43.725Z,3.70
2022-10-04T09:26:13.558Z,3.20
2022-10-04T09:29:03.924Z,3.22
2022-10-04T09:31:50.513Z,3.28
2022-10-04T09:34:37.636Z,4.30
2022-10-04T09:37:10.433Z,3.78
2022-10-04T09:39:44.415Z,3.55
2022-10-04T09:42:34.382Z,3.63
2022-10-04T09:45:39.403Z,3.80
2022-10-04T09:48:07.464Z,3.63
2022-10-04T09:50:43.163Z,4.57
2022-10-04T09:53:28.073Z,3.30
2022-10-04T09:56:00.428Z,3.83
2022-10-04T09:58:36.332Z,2.53
2022-10-04T10:01:26.119Z,2.80
2022-10-04T10:03:55.420Z,2.92
2022-10-04T10:06:26.269Z,2.30
2022-10-04T10:09:07.934Z,2.08
2022-10-04T10:12:07.522Z,2.05
2022-10-04T10:14:57.068Z,2.85
2022-10-04T10:17:42.899Z,2.58
2022-10-04T10:20:11.880Z,2.70
2022-10-04T10:22:53.132Z,1.75
2022-10-04T10:25:22.671Z,2.13
2022-10-04T10:27:51.584Z,2.53
2022-10-04T10:30:29.521Z,2.10
2022-10-04T10:33:23.291Z,1.83
2022-10-04T10:36:10.281Z,2.03
2022-10-04T10:38:49.932Z,2.15
2022-10-04T10:41:22.352Z,1.92
2022-10-04T10:44:04.761Z,1.77
2022-10-04T10:46:57.158Z,1.80
2022-10-04T10:49:32.797Z,1.67
2022-10-04T10:52:23.118Z,1.50
2022-10-04T10:55:12.196Z,1.70
2022-10-04T10:58:17.315Z,1.70
2022-10-04T11:00:52.762Z,1.77
2022-10-04T11:03:32.530Z,1.92
2022-10-04T11:06:17.417Z,1.70
2022-10-04T11:09:02.668Z,2.00
2022-10-04T11:11:50.545Z,1.80
2022-10-04T11:14:35.650Z,1.77
2022-10-04T11:17:11.225Z,2.13
2022-10-04T11:19:41.295Z,2.95
2022-10-04T11:22:26.336Z,2.00
2022-10-04T11:25:29.759Z,2.47
2022-10-04T11:28:07.890Z,3.55
2022-10-04T11:31:02.849Z,3.25
2022-10-04T11:33:35.583Z,1.30
2022-10-04T11:36:01.922Z,1.40
2022-10-04T11:38:49.645Z,3.30
2022-10-04T11:41:39.388Z,1.33
2022-10-04T11:44:18.761Z,1.30
2022-10-04T11:46:55.492Z,1.83
2022-10-04T11:49:40.585Z,1.60
2022-10-04T11:52:26.643Z,1.75
2022-10-04T11:55:12.947Z,1.30
2022-10-04T11:57:39.295Z,1.60
2022-10-04T12:00:09.747Z,1.30
2022-10-04T12:02:50.509Z,1.55
2022-10-04T12:05:35.322Z,1.85
2022-10-04T12:08:22.906Z,1.60
2022-10-04T12:11:05.741Z,1.42
2022-10-04T12:13:50.702Z,1.73
2022-10-04T12:16:43.851Z,2.53
2022-10-04T12:19:20.963Z,1.33
2022-10-04T12:22:06.976Z,2.25
2022-10-04T12:24:52.327Z,1.75
2022-10-04T12:27:39.622Z,1.77
2022-10-04T12:30:28.287Z,1.35
2022-10-04T12:33:16.165Z,1.80
2022-10-04T12:35:53.176Z,1.40
2022-10-04T12:38:41.158Z,1.63
2022-10-04T12:41:07.555Z,1.73
2022-10-04T12:43:53.654Z,2.08
2022-10-04T12:46:32.475Z,2.53
2022-10-04T12:49:12.638Z,1.40
2022-10-04T12:52:04.293Z,1.73
2022-10-04T12:54:45.027Z,1.77
2022-10-04T12:57:14.358Z,2.00
2022-10-04T13:00:00.755Z,1.83
2022-10-04T13:02:36.277Z,1.52
2022-10-04T13:05:18.163Z,1.85
2022-10-04T13:08:03.591Z,1.70
2022-10-04T13:10:36.050Z,1.55
2022-10-04T13:13:23.470Z,2.03
2022-10-04T13:18:56.672Z,1.52
2022-10-04T13:21:23.048Z,2.22
2022-10-04T13:24:08.838Z,1.50
2022-10-04T13:26:48.812Z,1.60
2022-10-04T13:29:31.002Z,1.50
2022-10-04T13:31:58.798Z,1.40
2022-10-04T13:34:31.372Z,1.30
2022-10-04T13:37:18.974Z,1.98
2022-10-04T13:39:49.139Z,2.33
2022-10-04T13:42:20.621Z,2.25
2022-10-04T13:45:05.503Z,2.65
2022-10-04T13:47:49.313Z,1.65
2022-10-04T13:50:17.493Z,2.05
2022-10-04T13:53:20.546Z,1.80
2022-10-04T13:56:18.059Z,1.52
2022-10-04T13:59:00.486Z,1.60
2022-10-04T14:01:48.354Z,2.03
2022-10-04T14:04:45.149Z,2.20
2022-10-04T14:07:14.634Z,1.92
2022-10-04T14:09:44.094Z,1.67
2022-10-04T14:12:30.846Z,1.80
2022-10-04T14:15:04.472Z,2.13
2022-10-04T14:18:06.416Z,1.88
2022-10-04T14:20:53.087Z,2.30
2022-10-04T14:23:28.964Z,2.00
2022-10-04T14:26:15.691Z,2.50
2022-10-04T14:28:45.546Z,2.10
2022-10-04T14:31:24.250Z,3.05
2022-10-04T14:33:50.638Z,3.00
2022-10-04T14:36:33.068Z,2.83
2022-10-04T14:39:08.822Z,3.00
2022-10-04T14:41:55.797Z,2.70
2022-10-04T14:44:41.652Z,3.30
2022-10-04T14:47:15.987Z,3.03
2022-10-04T14:50:00.337Z,4.20
2022-10-04T14:52:35.867Z,2.92
2022-10-04T14:55:17.436Z,4.03
2022-10-04T14:58:13.863Z,3.33
2022-10-04T15:01:00.538Z,3.05
2022-10-04T15:03:28.943Z,3.30
2022-10-04T15:06:03.041Z,3.05
2022-10-04T15:08:48.242Z,3.08
2022-10-04T15:11:17.709Z,3.80
2022-10-04T15:14:04.593Z,3.47
2022-10-04T15:16:33.840Z,3.83
2022-10-04T15:19:20.803Z,3.33
2022-10-04T15:22:01.781Z,3.88
2022-10-04T15:24:30.138Z,4.00
2022-10-04T15:27:15.199Z,4.22
2022-10-04T15:30:00.486Z,3.08
2022-10-04T15:32:35.582Z,3.05
2022-10-04T15:35:03.494Z,3.80
2022-10-04T15:37:29.998Z,3.65
2022-10-04T15:40:02.494Z,3.35
2022-10-04T15:42:32.646Z,3.10
2022-10-04T15:45:17.039Z,4.18
2022-10-04T15:48:02.223Z,2.95
2022-10-04T15:50:38.446Z,3.55
2022-10-04T15:53:26.159Z,2.75
2022-10-04T15:56:04.618Z,3.03
2022-10-04T15:58:31.199Z,2.65
2022-10-04T16:01:06.089Z,3.15
2022-10-04T16:03:38.527Z,3.30
2022-10-04T16:06:17.159Z,2.42
2022-10-04T16:08:50.000Z,2.75
2022-10-04T16:11:25.595Z,3.20
2022-10-04T16:13:51.916Z,2.83
2022-10-04T16:16:19.365Z,3.33
2022-10-04T16:18:51.364Z,3.55
2022-10-04T16:21:37.095Z,3.30
2022-10-04T16:24:21.998Z,4.60
2022-10-04T16:26:51.283Z,2.70
2022-10-04T16:29:18.374Z,2.97
2022-10-04T16:31:50.754Z,3.63
2022-10-04T16:34:17.144Z,4.38
2022-10-04T16:36:49.350Z,2.38
2022-10-04T16:39:52.893Z,3.20
2022-10-04T16:42:21.451Z,3.03
2022-10-04T16:44:54.884Z,3.05
2022-10-04T16:47:21.219Z,3.10
2022-10-04T16:49:54.938Z,3.28
2022-10-04T16:52:21.299Z,2.35
2022-10-04T16:55:03.535Z,2.70
2022-10-04T16:57:30.020Z,4.13
2022-10-04T16:59:57.751Z,3.15
2022-10-04T17:02:31.267Z,2.88
2022-10-04T17:05:01.028Z,2.40
2022-10-04T17:07:27.418Z,2.60
2022-10-04T17:10:18.922Z,2.90
2022-10-04T17:12:48.740Z,2.70
2022-10-04T17:15:15.093Z,2.45
2022-10-04T17:18:00.489Z,2.97
2022-10-04T17:20:26.890Z,3.47
2022-10-04T17:23:04.655Z,3.80
2022-10-04T17:25:51.871Z,3.05
2022-10-04T17:28:18.241Z,3.00
2022-10-04T17:30:54.048Z,3.78
2022-10-04T17:33:50.453Z,2.78
2022-10-04T17:36:17.029Z,3.03
2022-10-04T17:38:46.971Z,3.28
2022-10-04T17:41:13.330Z,2.90
2022-10-04T17:43:46.595Z,3.20
2022-10-04T17:46:38.006Z,3.22
2022-10-04T17:49:30.180Z,3.38
2022-10-04T17:52:15.678Z,3.08
2022-10-04T17:55:03.201Z,4.20
2022-10-04T17:57:37.794Z,3.97
2022-10-04T18:00:13.433Z,2.90
2022-10-04T18:02:42.842Z,3.13
2022-10-04T18:05:21.583Z,3.30
2022-10-04T18:07:49.553Z,2.92
2022-10-04T18:10:24.559Z,4.28
2022-10-04T18:13:06.682Z,4.10
2022-10-04T18:15:38.862Z,3.00
2022-10-04T18:18:08.371Z,3.88
2022-10-04T18:20:37.248Z,4.75
2022-10-04T18:23:17.441Z,3.40
2022-10-04T18:25:44.750Z,3.30
2022-10-04T18:28:13.626Z,3.30
2022-10-04T18:30:51.686Z,3.50
2022-10-04T18:33:33.275Z,3.97
2022-10-04T18:36:02.759Z,3.25
2022-10-04T18:38:30.057Z,3.42
2022-10-04T18:40:59.534Z,3.50
2022-10-04T18:43:29.857Z,3.40
2022-10-04T18:46:05.007Z,3.90
2022-10-04T18:48:40.109Z,3.97
2022-10-04T18:51:23.222Z,4.43
2022-10-04T18:54:09.943Z,4.32
2022-10-04T18:56:44.289Z,4.53
2022-10-04T18:59:38.436Z,5.03
2022-10-04T19:02:04.991Z,6.25
2022-10-04T19:04:50.398Z,5.85
2022-10-04T19:07:16.779Z,5.05
2022-10-04T19:09:43.115Z,5.88
2022-10-04T19:12:13.461Z,7.00
2022-10-04T19:14:53.728Z,5.53
2022-10-04T19:17:28.388Z,5.32
2022-10-04T19:20:03.530Z,5.25
2022-10-04T19:22:42.202Z,4.90
2022-10-04T19:25:39.401Z,5.85
2022-10-04T19:28:15.088Z,5.90
2022-10-04T19:30:54.262Z,5.15
2022-10-04T19:33:29.404Z,5.70
2022-10-04T19:36:03.613Z,5.68
2022-10-04T19:38:32.923Z,6.20
2022-10-04T19:41:07.912Z,5.47
2022-10-04T19:43:42.813Z,6.25
2022-10-04T19:46:18.537Z,4.57
2022-10-04T19:48:52.390Z,5.18
2022-10-04T19:51:19.655Z,7.78
2022-10-04T19:53:46.931Z,6.57
2022-10-04T19:56:18.005Z,7.43
2022-10-04T19:59:04.755Z,4.88
2022-10-04T20:01:31.158Z,4.85
2022-10-04T20:04:16.239Z,4.28
2022-10-04T20:06:55.678Z,4.68
2022-10-04T20:09:31.125Z,4.40
2022-10-04T20:11:57.692Z,3.92
2022-10-04T20:14:27.049Z,4.00
2022-10-04T20:16:53.582Z,4.00
2022-10-04T20:19:36.226Z,3.95
2022-10-04T20:22:10.087Z,4.30
2022-10-04T20:24:36.456Z,4.20
2022-10-04T20:27:21.637Z,3.42
2022-10-04T20:29:58.971Z,4.28
2022-10-04T20:32:29.851Z,3.92
2022-10-04T20:34:57.034Z,3.35
2022-10-04T20:37:42.205Z,3.80
2022-10-04T20:40:08.652Z,3.75
2022-10-04T20:42:38.811Z,3.30
2022-10-04T20:45:11.265Z,3.40
2022-10-04T20:47:40.777Z,3.72
2022-10-04T20:50:10.154Z,4.82
2022-10-04T20:52:36.806Z,3.63
2022-10-04T20:55:28.263Z,3.88
2022-10-04T20:57:55.480Z,3.20
2022-10-04T21:00:23.713Z,3.10
2022-10-04T21:02:50.294Z,3.88
2022-10-04T21:05:27.212Z,3.20
2022-10-04T21:08:32.351Z,3.75
2022-10-04T21:11:20.054Z,4.47
2022-10-04T21:13:57.282Z,3.63
2022-10-04T21:16:35.764Z,3.05
2022-10-04T21:19:20.921Z,4.03
2022-10-04T21:21:47.927Z,2.90
2022-10-04T21:24:33.211Z,2.88
2022-10-04T21:26:59.547Z,3.33
2022-10-04T21:29:25.912Z,2.88
2022-10-04T21:31:52.354Z,3.08
2022-10-04T21:34:41.376Z,3.40
2022-10-04T21:37:10.535Z,2.90
2022-10-04T21:39:36.988Z,3.20
2022-10-04T21:42:03.551Z,2.85
2022-10-04T21:44:29.975Z,3.20
2022-10-04T21:46:56.363Z,3.50
2022-10-04T21:49:22.767Z,3.42
2022-10-04T21:51:50.208Z,2.88
2022-10-04T21:54:16.671Z,2.78
2022-10-04T21:56:43.295Z,3.05
2022-10-04T21:59:10.169Z,3.00
2022-10-04T22:01:36.739Z,3.35
2022-10-04T22:04:03.111Z,3.55
2022-10-04T22:06:29.556Z,4.25
2022-10-04T22:08:55.892Z,4.07
2022-10-04T22:11:22.225Z,3.83
2022-10-04T22:13:49.001Z,4.55
2022-10-04T22:16:15.518Z,4.50
2022-10-04T22:18:41.953Z,5.40
2022-10-04T22:21:10.402Z,4.63
2022-10-04T22:23:38.603Z,4.32
2022-10-04T22:26:15.366Z,4.65
2022-10-04T22:28:47.290Z,4.90
2022-10-04T22:31:14.956Z,4.95
2022-10-04T22:33:42.530Z,5.03
2022-10-04T22:36:26.600Z,6.65
2022-10-04T22:39:08.240Z,5.63
2022-10-04T22:41:45.269Z,5.30
2022-10-04T22:44:14.743Z,6.95
2022-10-04T22:46:42.822Z,5.45
2022-10-04T22:49:14.152Z,5.70
2022-10-04T22:51:44.775Z,5.95
2022-10-04T22:54:12.520Z,6.72
2022-10-04T22:56:39.085Z,5.72
2022-10-04T22:59:05.763Z,5.45
2022-10-04T23:01:32.105Z,5.63
2022-10-04T23:03:58.417Z,5.85
2022-10-04T23:06:24.762Z,5.93
2022-10-04T23:08:54.752Z,6.38
2022-10-04T23:11:22.145Z,5.70
2022-10-04T23:13:48.475Z,5.70
2022-10-04T23:16:20.145Z,5.63
2022-10-04T23:18:46.516Z,5.65
2022-10-04T23:21:23.590Z,6.03
2022-10-04T23:23:50.645Z,6.65
2022-10-04T23:26:21.028Z,6.63
2022-10-04T23:28:47.368Z,6.45
2022-10-04T23:31:17.229Z,7.07
2022-10-04T23:33:43.692Z,6.75
2022-10-04T23:36:11.941Z,7.32
2022-10-04T23:38:38.360Z,7.70
2022-10-04T23:41:09.635Z,7.57
2022-10-04T23:43:36.038Z,8.55
2022-10-04T23:46:09.707Z,8.10
2022-10-04T23:48:36.177Z,7.00
2022-10-04T23:51:02.557Z,7.70
2022-10-04T23:53:31.152Z,7.35
2022-10-04T23:55:58.802Z,8.85
2022-10-04T23:58:26.501Z,7.70
